PGT25TF LTFJ-EDLW
Flight info
| Callsign | PGT25TF |
|---|---|
| Flight time | N/A |
| Altitude | 36000 |
| Route | TUDBU1J/06L TUDBU DCT NAVOD DCT INVED DCT DITIS DCT RAPET T170 RUNEN DCT FULNO/N0448F300 T842 IDEWE/N0412F240 T842 ADEMI ADEMI2A |
| Aircraft | A320/M-SDE3FGHIRWY/LB1 |
Departure
| Time | N/A |
|---|---|
| Airport | Istanbul Sabiha Gökçen International Airport (LTFJ) |
Arrival
| Time | 2026-04-29 16:27 |
|---|---|
| Airport | Dortmund Airport (EDLW) |
| Time | Latitude | Longitude | Altitude | Speed | Heading |
|---|---|---|---|---|---|
| 2026-04-29 16:04 | 50.94994 | 9.40465 | 23675 ft | 443 kts | 297° |
| 2026-04-29 16:04 | 50.96144 | 9.36031 | 23570 ft | 426 kts | 297° |
| 2026-04-29 16:05 | 50.97253 | 9.31779 | 23473 ft | 409 kts | 298° |
| 2026-04-29 16:05 | 50.98347 | 9.27617 | 23361 ft | 410 kts | 298° |
| 2026-04-29 16:05 | 50.99447 | 9.23447 | 23262 ft | 410 kts | 298° |
| 2026-04-29 16:05 | 51.00541 | 9.19277 | 23161 ft | 409 kts | 298° |
| 2026-04-29 16:06 | 51.01629 | 9.15102 | 23077 ft | 409 kts | 298° |
| 2026-04-29 16:06 | 51.02708 | 9.10940 | 22965 ft | 408 kts | 298° |
| 2026-04-29 16:06 | 51.03785 | 9.06767 | 22859 ft | 407 kts | 297° |
| 2026-04-29 16:06 | 51.04851 | 9.02612 | 22782 ft | 407 kts | 297° |
| 2026-04-29 16:07 | 51.05917 | 8.98448 | 22670 ft | 406 kts | 297° |
| 2026-04-29 16:07 | 51.06982 | 8.94291 | 22388 ft | 406 kts | 297° |
| 2026-04-29 16:07 | 51.08042 | 8.90147 | 21817 ft | 403 kts | 297° |
| 2026-04-29 16:07 | 51.09088 | 8.86037 | 21284 ft | 400 kts | 297° |
| 2026-04-29 16:08 | 51.10127 | 8.81956 | 20772 ft | 396 kts | 297° |
| 2026-04-29 16:08 | 51.11197 | 8.77950 | 20268 ft | 390 kts | 301° |
| 2026-04-29 16:08 | 51.12497 | 8.74216 | 19787 ft | 384 kts | 304° |
| 2026-04-29 16:08 | 51.13813 | 8.70544 | 19321 ft | 380 kts | 304° |
| 2026-04-29 16:09 | 51.15112 | 8.66896 | 18862 ft | 377 kts | 304° |
| 2026-04-29 16:09 | 51.16395 | 8.63268 | 18367 ft | 374 kts | 303° |
| 2026-04-29 16:09 | 51.17675 | 8.59635 | 17584 ft | 379 kts | 303° |
| 2026-04-29 16:09 | 51.18943 | 8.56035 | 17104 ft | 375 kts | 303° |
| 2026-04-29 16:10 | 51.20285 | 8.52518 | 16650 ft | 368 kts | 310° |
| 2026-04-29 16:10 | 51.21890 | 8.49387 | 16163 ft | 362 kts | 314° |
| 2026-04-29 16:10 | 51.23532 | 8.46352 | 15694 ft | 360 kts | 315° |
| 2026-04-29 16:10 | 51.25166 | 8.43332 | 15209 ft | 359 kts | 315° |
| 2026-04-29 16:11 | 51.26791 | 8.40325 | 14712 ft | 357 kts | 315° |
| 2026-04-29 16:11 | 51.28412 | 8.37322 | 14197 ft | 357 kts | 315° |
| 2026-04-29 16:11 | 51.30027 | 8.34317 | 13644 ft | 356 kts | 314° |
| 2026-04-29 16:11 | 51.31628 | 8.31320 | 13117 ft | 353 kts | 314° |
| 2026-04-29 16:12 | 51.33216 | 8.28344 | 12595 ft | 351 kts | 314° |
| 2026-04-29 16:12 | 51.34263 | 8.26378 | 12242 ft | 350 kts | 314° |
| 2026-04-29 16:12 | 51.36111 | 8.22076 | 11518 ft | 352 kts | 304° |
| 2026-04-29 16:12 | 51.37334 | 8.18697 | 10975 ft | 351 kts | 304° |
| 2026-04-29 16:13 | 51.38545 | 8.15364 | 10718 ft | 340 kts | 303° |
| 2026-04-29 16:13 | 51.39713 | 8.12151 | 10594 ft | 327 kts | 303° |
| 2026-04-29 16:13 | 51.40838 | 8.09060 | 10470 ft | 315 kts | 304° |
| 2026-04-29 16:13 | 51.41925 | 8.06082 | 10339 ft | 305 kts | 304° |
| 2026-04-29 16:14 | 51.42989 | 8.03191 | 10123 ft | 298 kts | 305° |
| 2026-04-29 16:14 | 51.44044 | 8.00348 | 10056 ft | 297 kts | 304° |
| 2026-04-29 16:14 | 51.45098 | 7.97499 | 9980 ft | 297 kts | 304° |
| 2026-04-29 16:14 | 51.46158 | 7.94623 | 9489 ft | 302 kts | 304° |
| 2026-04-29 16:15 | 51.47218 | 7.91741 | 9039 ft | 302 kts | 304° |
| 2026-04-29 16:15 | 51.48217 | 7.88775 | 8667 ft | 301 kts | 295° |
| 2026-04-29 16:15 | 51.48838 | 7.85570 | 8238 ft | 301 kts | 287° |
| 2026-04-29 16:15 | 51.49374 | 7.82317 | 7811 ft | 301 kts | 286° |
| 2026-04-29 16:16 | 51.49906 | 7.79070 | 7428 ft | 300 kts | 286° |
| 2026-04-29 16:16 | 51.50433 | 7.75846 | 7082 ft | 298 kts | 286° |
| 2026-04-29 16:16 | 51.50959 | 7.72641 | 6714 ft | 296 kts | 286° |
| 2026-04-29 16:16 | 51.51482 | 7.69454 | 6260 ft | 296 kts | 286° |
| 2026-04-29 16:17 | 51.52006 | 7.66259 | 5837 ft | 296 kts | 286° |
| 2026-04-29 16:17 | 51.52530 | 7.63075 | 5447 ft | 294 kts | 286° |
| 2026-04-29 16:17 | 51.53055 | 7.59930 | 5146 ft | 289 kts | 287° |
| 2026-04-29 16:17 | 51.53577 | 7.56841 | 4777 ft | 285 kts | 287° |
| 2026-04-29 16:18 | 51.54084 | 7.53807 | 4607 ft | 275 kts | 287° |
| 2026-04-29 16:18 | 51.54526 | 7.50886 | 4475 ft | 264 kts | 277° |
| 2026-04-29 16:18 | 51.54375 | 7.48015 | 4345 ft | 254 kts | 257° |
| 2026-04-29 16:18 | 51.53952 | 7.45308 | 4066 ft | 252 kts | 254° |
| 2026-04-29 16:19 | 51.53476 | 7.42549 | 3589 ft | 258 kts | 252° |
| 2026-04-29 16:19 | 51.52773 | 7.39908 | 3239 ft | 257 kts | 240° |
| 2026-04-29 16:19 | 51.51917 | 7.37407 | 3019 ft | 254 kts | 238° |
| 2026-04-29 16:19 | 51.51047 | 7.34930 | 3005 ft | 256 kts | 238° |
| 2026-04-29 16:20 | 51.50166 | 7.32441 | 3012 ft | 257 kts | 238° |
| 2026-04-29 16:20 | 51.49254 | 7.29993 | 3006 ft | 254 kts | 231° |
| 2026-04-29 16:20 | 51.48092 | 7.27900 | 3002 ft | 250 kts | 213° |
| 2026-04-29 16:20 | 51.46544 | 7.26817 | 3009 ft | 240 kts | 182° |
| 2026-04-29 16:21 | 51.44924 | 7.26870 | 2998 ft | 227 kts | 157° |
| 2026-04-29 16:21 | 51.43667 | 7.28144 | 3000 ft | 204 kts | 123° |
| 2026-04-29 16:21 | 51.43140 | 7.30167 | 3016 ft | 197 kts | 97° |
| 2026-04-29 16:21 | 51.42955 | 7.32316 | 3013 ft | 190 kts | 94° |
| 2026-04-29 16:22 | 51.42830 | 7.34398 | 3001 ft | 186 kts | 89° |
| 2026-04-29 16:22 | 51.43075 | 7.36414 | 3014 ft | 185 kts | 67° |
| 2026-04-29 16:22 | 51.43683 | 7.38191 | 3005 ft | 178 kts | 62° |
| 2026-04-29 16:22 | 51.44280 | 7.39863 | 3010 ft | 170 kts | 63° |
| 2026-04-29 16:23 | 51.44861 | 7.41496 | 3034 ft | 166 kts | 62° |
| 2026-04-29 16:23 | 51.45431 | 7.43097 | 2998 ft | 165 kts | 62° |
| 2026-04-29 16:23 | 51.46021 | 7.44661 | 2852 ft | 160 kts | 61° |
| 2026-04-29 16:23 | 51.46586 | 7.46163 | 2629 ft | 155 kts | 62° |
| 2026-04-29 16:24 | 51.47091 | 7.47647 | 2429 ft | 149 kts | 64° |
| 2026-04-29 16:24 | 51.47591 | 7.49109 | 2102 ft | 152 kts | 62° |
| 2026-04-29 16:24 | 51.48129 | 7.50538 | 1782 ft | 148 kts | 60° |
| 2026-04-29 16:24 | 51.48649 | 7.51946 | 1579 ft | 146 kts | 64° |
| 2026-04-29 16:25 | 51.49109 | 7.53385 | 1479 ft | 144 kts | 65° |
| 2026-04-29 16:25 | 51.49567 | 7.54763 | 1280 ft | 132 kts | 61° |
| 2026-04-29 16:25 | 51.50019 | 7.56041 | 1076 ft | 130 kts | 60° |
| 2026-04-29 16:25 | 51.50451 | 7.57312 | 920 ft | 131 kts | 58° |
| 2026-04-29 16:26 | 51.50898 | 7.58545 | 748 ft | 127 kts | 57° |
| 2026-04-29 16:26 | 51.51326 | 7.59785 | 590 ft | 126 kts | 61° |
| 2026-04-29 16:26 | 51.51753 | 7.60988 | 427 ft | 117 kts | 59° |
| 2026-04-29 16:26 | 51.52083 | 7.61930 | 411 ft | 72 kts | 61° |
| 2026-04-29 16:27 | 51.52246 | 7.62393 | 408 ft | 23 kts | 60° |
| 2026-04-29 16:27 | 51.52299 | 7.62549 | 403 ft | 24 kts | 63° |
| 2026-04-29 16:27 | 51.52301 | 7.62736 | 401 ft | 10 kts | 153° |
| 2026-04-29 16:27 | 51.52197 | 7.62770 | 402 ft | 23 kts | 201° |
| 2026-04-29 16:28 | 51.52147 | 7.62653 | 403 ft | 9 kts | 243° |
| 2026-04-29 16:28 | 51.52129 | 7.62604 | 405 ft | 6 kts | 239° |
| 2026-04-29 16:28 | 51.52089 | 7.62491 | 408 ft | 26 kts | 242° |
| 2026-04-29 16:28 | 51.51971 | 7.62158 | 414 ft | 35 kts | 241° |
| 2026-04-29 16:29 | 51.51858 | 7.61837 | 413 ft | 31 kts | 240° |
| 2026-04-29 16:29 | 51.51759 | 7.61548 | 410 ft | 27 kts | 241° |
| 2026-04-29 16:29 | 51.51673 | 7.61306 | 419 ft | 22 kts | 242° |
| 2026-04-29 16:29 | 51.51613 | 7.61184 | 422 ft | 6 kts | 186° |
| 2026-04-29 16:30 | 51.51587 | 7.61211 | 426 ft | 2 kts | 136° |
| 2026-04-29 16:30 | 51.51565 | 7.61239 | 429 ft | 0 kts | 148° |
| 2026-04-29 16:30 | 51.51558 | 7.61246 | 430 ft | 3 kts | 148° |
| 2026-04-29 16:30 | 51.51557 | 7.61247 | 430 ft | 0 kts | 148° |